Wednesday, November 14, 2018, 8:59 PM EST
Back to Local

KMIV, Millville Municipal Airport

Location: Millville, NJ, United States Lat: 39.367
Local Time: 8:59 PM EST ( 1:59 GMT) Lon: -75.083
Time Zone: US/Eastern Elev: 85 ft

Show me the last for .
Show Decoded

2018-11-14 19:54 METAR KMIV 150054Z AUTO 03006KT 10SM CLR 03/M07 A3052 RMK AO2 SLP335 T00331067 =
2018-11-14 18:54 METAR KMIV 142354Z AUTO 35003KT 10SM CLR 02/M06 A3050 RMK AO2 SLP327 T00221056
                 10061 20022 50011 =
2018-11-14 17:54 METAR KMIV 142254Z AUTO 34004KT 10SM CLR 03/M06 A3050 RMK AO2 SLP327 T00331056 =
2018-11-14 16:54 METAR KMIV 142154Z AUTO 30004KT 10SM CLR 04/M05 A3048 RMK AO2 SLP321 T00391050 =
2018-11-14 15:54 METAR KMIV 142054Z AUTO 33007KT 10SM CLR 05/M06 A3046 RMK AO2 SLP316 T00501061
                 53013 =
2018-11-14 14:54 METAR KMIV 141954Z AUTO 30008KT 10SM CLR 06/M07 A3045 RMK AO2 SLP311 T00561067 =
2018-11-14 13:54 METAR KMIV 141854Z AUTO 34009KT 10SM CLR 06/M06 A3043 RMK AO2 SLP306 T00561061 =
2018-11-14 12:54 METAR KMIV 141754Z AUTO 33009G18KT 10SM CLR 06/M07 A3043 RMK AO2 SLP303
                 T00611067 10061 20033 58000 =
2018-11-14 11:54 METAR KMIV 141654Z AUTO 32011G20KT 10SM CLR 04/M08 A3043 RMK AO2 SLP305
                 T00441078 =
2018-11-14 10:54 METAR KMIV 141554Z AUTO 33015G19KT 10SM CLR 05/M07 A3044 RMK AO2 SLP306
                 T00501072 =
2018-11-14 09:54 METAR KMIV 141454Z AUTO 32008KT 10SM CLR 04/M06 A3043 RMK AO2 SLP303 T00441056
                 51023 =
2018-11-14 08:54 METAR KMIV 141354Z AUTO 30009G16KT 10SM CLR 04/M04 A3042 RMK AO2 SLP300
                 T00441039 =
2018-11-14 07:54 METAR KMIV 141254Z AUTO 31007KT 10SM CLR 03/M04 A3039 RMK AO2 SLP292 T00331044 =
2018-11-14 06:54 METAR KMIV 141154Z AUTO 29004KT 10SM CLR 03/M04 A3036 RMK AO2 SLP280 70007
                 T00331044 10061 20033 51031 =
2018-11-14 05:54 METAR KMIV 141054Z AUTO 30007KT 10SM CLR 03/M05 A3034 RMK AO2 SLP275 T00331050 =
2018-11-14 04:54 METAR KMIV 140954Z AUTO 30010KT 10SM CLR 04/M05 A3030 RMK AO2 SLP262 T00391050 =
2018-11-14 03:54 METAR KMIV 140854Z AUTO 31009KT 10SM CLR 04/M06 A3027 RMK AO2 SLP250 T00391056
                 53015 =
2018-11-14 02:54 METAR KMIV 140754Z AUTO 31012G20KT 10SM CLR 04/M05 A3026 RMK AO2 SLP245
                 T00441050 =
2018-11-14 01:54 METAR KMIV 140654Z AUTO 30007KT 10SM CLR 06/M02 A3023 RMK AO2 SLP235 T00561022 =
2018-11-14 00:54 METAR KMIV 140554Z AUTO 31010G17KT 10SM FEW045 06/M02 A3023 RMK AO2 SLP234
                 T00611022 10078 20061 51022 =
2018-11-13 23:54 METAR KMIV 140454Z AUTO 29007KT 10SM FEW044 06/01 A3021 RMK AO2 SLP227 T00610006
                 401110061 =
2018-11-13 22:54 METAR KMIV 140354Z AUTO 28006KT 10SM CLR 06/02 A3018 RMK AO2 SLP220 T00610022 =
2018-11-13 21:54 METAR KMIV 140254Z AUTO 28005KT 10SM CLR 07/02 A3016 RMK AO2 SLP212 T00670022
                 51023 =

Support USWX by starting your Amazon purchase here.